createdAt,value
2022-11-09T00:00:12.901Z,19.55
2022-11-09T00:00:35.784Z,19.45
2022-11-09T00:01:01.648Z,19.60
2022-11-09T00:01:24.514Z,19.67
2022-11-09T00:01:47.181Z,19.70
2022-11-09T00:02:09.854Z,19.52
2022-11-09T00:02:32.548Z,19.65
2022-11-09T00:02:56.395Z,18.80
2022-11-09T00:03:19.443Z,18.77
2022-11-09T00:03:42.644Z,19.75
2022-11-09T00:04:05.822Z,20.48
2022-11-09T00:04:28.619Z,20.25
2022-11-09T00:04:51.338Z,19.73
2022-11-09T00:05:14.183Z,19.45
2022-11-09T00:05:36.944Z,19.20
2022-11-09T00:06:00.422Z,19.75
2022-11-09T00:06:23.215Z,20.85
2022-11-09T00:06:45.987Z,19.48
2022-11-09T00:07:08.942Z,19.58
2022-11-09T00:07:32.342Z,19.10
2022-11-09T00:07:55.103Z,19.67
2022-11-09T00:08:17.817Z,20.95
2022-11-09T00:08:41.098Z,20.20
2022-11-09T00:09:07.700Z,19.88
2022-11-09T00:09:30.924Z,19.70
2022-11-09T00:09:53.776Z,19.85
2022-11-09T00:10:16.678Z,20.98
2022-11-09T00:10:39.302Z,21.38
2022-11-09T00:11:06.748Z,19.50
2022-11-09T00:11:29.403Z,20.10
2022-11-09T00:11:52.104Z,20.08
2022-11-09T00:12:14.772Z,19.52
2022-11-09T00:12:37.442Z,20.08
2022-11-09T00:13:00.142Z,19.52
2022-11-09T00:13:23.278Z,19.23
2022-11-09T00:13:46.577Z,19.00
2022-11-09T00:14:14.257Z,18.48
2022-11-09T00:14:37.325Z,19.33
2022-11-09T00:14:59.944Z,18.80
2022-11-09T00:15:22.712Z,18.55
2022-11-09T00:15:45.374Z,19.00
2022-11-09T00:16:09.286Z,18.80
2022-11-09T00:16:31.928Z,19.23
2022-11-09T00:16:54.724Z,19.05
2022-11-09T00:17:17.367Z,19.90
2022-11-09T00:17:40.021Z,19.67
2022-11-09T00:18:05.475Z,19.30
2022-11-09T00:18:28.358Z,20.20
2022-11-09T00:18:52.018Z,21.20
2022-11-09T00:19:14.888Z,20.67
2022-11-09T00:19:37.627Z,21.13
2022-11-09T00:20:00.326Z,20.20
2022-11-09T00:20:23.147Z,20.13
2022-11-09T00:20:47.910Z,20.88
2022-11-09T00:21:12.163Z,21.10
2022-11-09T00:21:34.804Z,21.10
2022-11-09T00:21:57.528Z,20.30
2022-11-09T00:22:20.231Z,20.85
2022-11-09T00:22:43.211Z,20.08
2022-11-09T00:23:06.081Z,20.23
2022-11-09T00:23:28.791Z,20.63
2022-11-09T00:23:51.532Z,21.05
2022-11-09T00:24:16.857Z,21.10
2022-11-09T00:24:39.606Z,19.65
2022-11-09T00:25:02.460Z,20.08
2022-11-09T00:25:25.276Z,21.10
2022-11-09T00:25:48.033Z,20.45
2022-11-09T00:26:13.067Z,20.67
2022-11-09T00:26:35.892Z,20.80
2022-11-09T00:26:58.642Z,21.85
2022-11-09T00:27:21.396Z,22.33
2022-11-09T00:27:44.118Z,21.05
2022-11-09T00:28:06.875Z,20.48
2022-11-09T00:28:29.636Z,21.42
2022-11-09T00:28:53.146Z,22.52
2022-11-09T00:29:15.907Z,22.95
2022-11-09T00:29:38.716Z,22.30
2022-11-09T00:30:01.472Z,22.17
2022-11-09T00:30:24.183Z,21.48
2022-11-09T00:30:46.922Z,20.58
2022-11-09T00:31:12.291Z,20.75
2022-11-09T00:31:35.579Z,19.88
2022-11-09T00:31:58.452Z,19.50
2022-11-09T00:32:25.229Z,19.50
2022-11-09T00:32:50.241Z,20.08
2022-11-09T00:33:12.944Z,19.98
2022-11-09T00:33:35.632Z,21.00
2022-11-09T00:33:58.572Z,20.92
2022-11-09T00:34:21.399Z,19.88
2022-11-09T00:34:44.336Z,20.10
2022-11-09T00:35:07.596Z,20.65
2022-11-09T00:35:30.371Z,20.90
2022-11-09T00:35:52.952Z,20.70
2022-11-09T00:36:15.667Z,19.63
2022-11-09T00:36:38.413Z,19.23
2022-11-09T00:37:02.242Z,19.55
2022-11-09T00:37:25.071Z,20.02
2022-11-09T00:37:47.979Z,20.55
2022-11-09T00:38:10.779Z,19.38
2022-11-09T00:38:33.825Z,18.98
2022-11-09T00:38:57.532Z,19.23
2022-11-09T00:39:20.287Z,18.77
2022-11-09T00:39:44.172Z,18.75
2022-11-09T00:40:09.038Z,18.23
2022-11-09T00:40:31.841Z,19.08
2022-11-09T00:40:58.721Z,18.73
2022-11-09T00:41:23.187Z,18.98
2022-11-09T00:41:45.882Z,19.20
2022-11-09T00:42:08.588Z,19.33
2022-11-09T00:42:31.251Z,19.20
2022-11-09T00:42:53.872Z,19.88
2022-11-09T00:43:17.257Z,20.25
2022-11-09T00:43:41.601Z,19.88
2022-11-09T00:44:04.807Z,20.02
2022-11-09T00:44:28.007Z,19.80
2022-11-09T00:44:50.756Z,20.63
2022-11-09T00:45:13.602Z,21.70
2022-11-09T00:45:36.382Z,20.90
2022-11-09T00:45:59.192Z,20.70
2022-11-09T00:46:22.154Z,20.75
2022-11-09T00:46:45.240Z,20.80
2022-11-09T00:47:10.787Z,20.40
2022-11-09T00:47:33.526Z,20.65
2022-11-09T00:47:56.220Z,21.13
2022-11-09T00:48:18.972Z,19.92
2022-11-09T00:48:41.733Z,19.23
2022-11-09T00:49:04.496Z,19.80
2022-11-09T00:49:27.193Z,19.48
2022-11-09T00:49:50.056Z,18.50
2022-11-09T00:50:12.774Z,19.88
2022-11-09T00:50:35.522Z,19.52
2022-11-09T00:50:58.317Z,19.58
2022-11-09T00:51:21.121Z,21.52
2022-11-09T00:51:43.891Z,20.40
2022-11-09T00:52:06.619Z,20.83
2022-11-09T00:52:29.357Z,20.80
2022-11-09T00:52:52.048Z,21.33
2022-11-09T00:53:14.746Z,21.73
2022-11-09T00:53:37.433Z,21.38
2022-11-09T00:54:00.150Z,21.80
2022-11-09T00:54:22.872Z,23.55
2022-11-09T00:54:45.726Z,21.75
2022-11-09T00:55:09.342Z,20.77
2022-11-09T00:55:32.037Z,21.20
2022-11-09T00:55:55.944Z,20.73
2022-11-09T00:56:22.825Z,20.90
2022-11-09T00:56:45.592Z,21.05
2022-11-09T00:57:08.363Z,20.55
2022-11-09T00:57:31.138Z,20.00
2022-11-09T00:57:53.885Z,19.85
2022-11-09T00:58:16.542Z,20.05
2022-11-09T00:58:41.762Z,19.90
2022-11-09T00:59:05.027Z,19.40
2022-11-09T00:59:28.798Z,19.70
2022-11-09T00:59:53.767Z,19.70
2022-11-09T01:00:18.147Z,20.77
2022-11-09T01:00:40.915Z,19.42
2022-11-09T01:01:07.303Z,19.63
2022-11-09T01:01:30.156Z,19.30
2022-11-09T01:01:53.327Z,18.27
2022-11-09T01:02:16.093Z,20.63
2022-11-09T01:02:38.837Z,21.20
2022-11-09T01:03:01.513Z,21.83
2022-11-09T01:03:24.463Z,22.25
2022-11-09T01:03:47.208Z,20.98
2022-11-09T01:04:09.928Z,20.25
2022-11-09T01:04:32.722Z,21.40
2022-11-09T01:04:55.387Z,20.67
2022-11-09T01:05:18.247Z,22.13
2022-11-09T01:05:40.969Z,22.52
2022-11-09T01:06:03.667Z,20.98
2022-11-09T01:06:26.514Z,21.10
2022-11-09T01:06:49.306Z,21.58
2022-11-09T01:07:12.138Z,21.40
2022-11-09T01:07:34.902Z,22.25
2022-11-09T01:07:57.617Z,22.98
2022-11-09T01:08:20.540Z,22.58
2022-11-09T01:08:43.537Z,22.48
2022-11-09T01:09:09.293Z,23.23
2022-11-09T01:09:32.647Z,22.15
2022-11-09T01:09:55.491Z,20.92
2022-11-09T01:10:18.260Z,20.17
2022-11-09T01:10:42.485Z,21.23
2022-11-09T01:11:05.497Z,21.98
2022-11-09T01:11:29.662Z,22.08
2022-11-09T01:11:52.467Z,23.73
2022-11-09T01:12:15.487Z,24.17
2022-11-09T01:12:38.246Z,24.88
2022-11-09T01:13:00.952Z,23.45
2022-11-09T01:13:23.762Z,22.95
2022-11-09T01:13:46.482Z,22.13
2022-11-09T01:14:10.737Z,22.88
2022-11-09T01:14:33.495Z,23.55
2022-11-09T01:14:56.356Z,22.90
2022-11-09T01:15:22.397Z,22.50
2022-11-09T01:15:46.631Z,21.70
2022-11-09T01:16:10.870Z,22.13
2022-11-09T01:16:33.647Z,22.30
2022-11-09T01:16:56.352Z,21.98
2022-11-09T01:17:19.207Z,22.38
2022-11-09T01:17:41.968Z,21.85
2022-11-09T01:18:07.043Z,21.92
2022-11-09T01:18:29.768Z,22.02
2022-11-09T01:18:54.262Z,22.33
2022-11-09T01:19:17.017Z,22.42
2022-11-09T01:19:39.700Z,23.10
2022-11-09T01:20:02.476Z,22.58
2022-11-09T01:20:25.198Z,22.55
2022-11-09T01:20:49.026Z,21.95
2022-11-09T01:21:13.037Z,22.35
2022-11-09T01:21:35.911Z,22.00
2022-11-09T01:22:01.174Z,22.55
2022-11-09T01:22:23.891Z,21.67
2022-11-09T01:22:46.873Z,22.30
2022-11-09T01:23:12.082Z,22.30
2022-11-09T01:23:34.883Z,22.70
2022-11-09T01:23:58.643Z,21.95
2022-11-09T01:24:21.538Z,21.23
2022-11-09T01:24:44.322Z,21.65
2022-11-09T01:25:07.690Z,21.65
2022-11-09T01:25:30.403Z,21.60
2022-11-09T01:25:58.642Z,21.10
2022-11-09T01:26:21.448Z,21.42
2022-11-09T01:26:45.607Z,21.55
2022-11-09T01:27:08.327Z,22.08
2022-11-09T01:27:31.043Z,21.05
2022-11-09T01:27:53.763Z,21.75
2022-11-09T01:28:16.518Z,20.80
2022-11-09T01:28:39.213Z,20.52
2022-11-09T01:29:01.947Z,21.30
2022-11-09T01:29:24.583Z,21.38
2022-11-09T01:29:47.323Z,21.77
2022-11-09T01:30:11.211Z,22.45
2022-11-09T01:30:34.398Z,21.77
2022-11-09T01:31:00.497Z,22.17
2022-11-09T01:31:23.364Z,21.90
2022-11-09T01:31:46.951Z,22.35
2022-11-09T01:32:10.607Z,21.85
2022-11-09T01:32:33.400Z,22.00
2022-11-09T01:32:56.163Z,22.05
2022-11-09T01:33:18.945Z,22.50
2022-11-09T01:33:41.983Z,21.77
2022-11-09T01:34:04.787Z,20.98
2022-11-09T01:34:28.381Z,21.35
2022-11-09T01:34:51.138Z,21.40
2022-11-09T01:35:13.862Z,21.70
2022-11-09T01:35:37.312Z,20.92
2022-11-09T01:36:02.652Z,20.77
2022-11-09T01:36:25.400Z,21.23
2022-11-09T01:36:50.643Z,21.20
2022-11-09T01:37:13.447Z,21.10
2022-11-09T01:37:36.178Z,20.80
2022-11-09T01:37:58.880Z,22.38
2022-11-09T01:38:21.604Z,20.95
2022-11-09T01:38:44.322Z,20.90
2022-11-09T01:39:09.654Z,21.73
2022-11-09T01:39:32.325Z,21.92
2022-11-09T01:39:54.991Z,21.42
2022-11-09T01:40:17.842Z,22.40
2022-11-09T01:40:40.782Z,24.45
2022-11-09T01:41:03.533Z,26.20
2022-11-09T01:41:27.699Z,22.67
2022-11-09T01:41:51.840Z,22.88
2022-11-09T01:42:15.127Z,22.70
2022-11-09T01:42:39.888Z,23.85
2022-11-09T01:43:07.292Z,23.35
2022-11-09T01:43:29.979Z,23.42
2022-11-09T01:44:07.118Z,25.30
2022-11-09T01:44:29.779Z,26.15
2022-11-09T01:45:26.803Z,25.10
2022-11-09T01:45:50.461Z,27.08
2022-11-09T01:46:17.606Z,26.58
2022-11-09T01:46:45.128Z,24.23
2022-11-09T01:47:10.727Z,24.95
2022-11-09T01:47:33.507Z,27.95
2022-11-09T01:48:00.396Z,28.35
2022-11-09T01:48:28.497Z,26.63
2022-11-09T01:48:52.183Z,25.30
2022-11-09T01:49:19.794Z,24.30
2022-11-09T01:49:47.060Z,26.40
2022-11-09T01:50:09.901Z,25.58
2022-11-09T01:50:39.058Z,25.42
2022-11-09T01:51:03.690Z,26.98
2022-11-09T01:51:27.759Z,23.48
2022-11-09T01:51:52.489Z,22.77
2022-11-09T01:52:16.958Z,27.45
2022-11-09T01:52:40.668Z,24.08
2022-11-09T01:53:04.083Z,25.80
2022-11-09T01:53:27.971Z,26.67
2022-11-09T01:53:52.027Z,26.45
2022-11-09T01:54:18.391Z,30.65
2022-11-09T01:54:43.856Z,35.63
2022-11-09T01:55:08.302Z,37.85
2022-11-09T01:55:30.975Z,32.00
2022-11-09T01:55:55.077Z,32.10
2022-11-09T01:56:17.797Z,30.35
2022-11-09T01:56:40.640Z,26.08
2022-11-09T01:57:06.467Z,24.98
2022-11-09T01:57:30.782Z,25.35
2022-11-09T01:57:55.893Z,27.80
2022-11-09T01:58:21.106Z,29.38
2022-11-09T01:58:46.402Z,27.73
2022-11-09T01:59:10.480Z,26.73
2022-11-09T01:59:36.702Z,27.60
2022-11-09T02:00:01.267Z,25.02
2022-11-09T02:00:24.152Z,27.45
2022-11-09T02:00:50.601Z,26.98
2022-11-09T02:01:13.621Z,24.40
2022-11-09T02:01:36.537Z,24.45
2022-11-09T02:01:59.681Z,23.70
2022-11-09T02:02:22.870Z,23.60
2022-11-09T02:02:48.076Z,24.77
2022-11-09T02:03:12.967Z,26.67
2022-11-09T02:03:38.031Z,23.70
2022-11-09T02:04:03.291Z,24.83
2022-11-09T02:04:27.583Z,23.10
2022-11-09T02:04:52.004Z,24.23
2022-11-09T02:05:18.381Z,22.42
2022-11-09T02:05:42.157Z,22.77
2022-11-09T02:06:06.393Z,23.15
2022-11-09T02:06:29.929Z,22.50
2022-11-09T02:06:52.687Z,20.80
2022-11-09T02:07:15.508Z,20.08
2022-11-09T02:07:38.331Z,19.92
2022-11-09T02:08:02.094Z,21.40
2022-11-09T02:08:25.277Z,23.92
2022-11-09T02:08:48.022Z,23.85
2022-11-09T02:09:21.057Z,23.27
2022-11-09T02:09:47.871Z,23.20
2022-11-09T02:10:13.762Z,24.58
2022-11-09T02:10:43.832Z,21.67
2022-11-09T02:11:09.172Z,22.98
2022-11-09T02:11:31.948Z,24.17
2022-11-09T02:11:54.733Z,24.05
2022-11-09T02:12:19.366Z,26.02
2022-11-09T02:12:42.140Z,25.48
2022-11-09T02:13:04.797Z,25.20
2022-11-09T02:13:27.578Z,23.38
2022-11-09T02:13:54.741Z,23.35
2022-11-09T02:14:18.265Z,22.50
2022-11-09T02:14:41.137Z,23.38
2022-11-09T02:15:05.292Z,23.80
2022-11-09T02:15:28.008Z,23.77
2022-11-09T02:15:50.721Z,24.88
2022-11-09T02:16:13.914Z,25.33
2022-11-09T02:16:36.677Z,27.85
2022-11-09T02:16:59.395Z,26.23
2022-11-09T02:17:22.146Z,24.45
2022-11-09T02:17:44.866Z,25.38
2022-11-09T02:18:07.600Z,25.73
2022-11-09T02:18:31.158Z,23.25
2022-11-09T02:18:54.870Z,22.60
2022-11-09T02:19:17.596Z,22.52
2022-11-09T02:19:40.311Z,23.33
2022-11-09T02:20:09.355Z,24.80
2022-11-09T02:20:32.110Z,23.60
2022-11-09T02:20:55.795Z,23.38
2022-11-09T02:21:18.585Z,22.83
2022-11-09T02:21:41.316Z,25.08
2022-11-09T02:22:04.186Z,22.10
2022-11-09T02:22:26.872Z,21.67
2022-11-09T02:22:49.630Z,21.20
2022-11-09T02:23:12.449Z,21.73
2022-11-09T02:23:35.121Z,21.52
2022-11-09T02:23:58.072Z,20.27
2022-11-09T02:24:21.096Z,20.67
2022-11-09T02:24:43.895Z,21.38
2022-11-09T02:25:08.167Z,20.45
2022-11-09T02:25:30.935Z,20.17
2022-11-09T02:25:55.690Z,19.85
2022-11-09T02:26:19.841Z,18.77
2022-11-09T02:26:44.200Z,18.25
2022-11-09T02:27:07.371Z,18.63
2022-11-09T02:27:30.098Z,16.98
2022-11-09T02:27:52.796Z,17.83
2022-11-09T02:28:15.771Z,17.15
2022-11-09T02:28:38.824Z,17.33
2022-11-09T02:29:03.875Z,19.38
2022-11-09T02:29:28.505Z,17.42
2022-11-09T02:29:51.256Z,16.48
2022-11-09T02:30:14.510Z,16.88
2022-11-09T02:30:37.211Z,16.42
2022-11-09T02:30:59.916Z,16.27
2022-11-09T02:31:24.831Z,16.77
2022-11-09T02:31:49.915Z,16.20
2022-11-09T02:32:15.030Z,16.60
2022-11-09T02:32:37.750Z,15.80
2022-11-09T02:33:00.540Z,18.00
2022-11-09T02:33:23.436Z,19.15
2022-11-09T02:33:54.409Z,18.65
2022-11-09T02:34:18.575Z,17.40
2022-11-09T02:34:41.375Z,16.63
2022-11-09T02:35:04.477Z,17.55
2022-11-09T02:35:28.555Z,18.75
2022-11-09T02:35:51.258Z,17.98
2022-11-09T02:36:13.925Z,16.75
2022-11-09T02:36:36.632Z,17.42
2022-11-09T02:36:59.374Z,17.52
2022-11-09T02:37:26.810Z,17.15
2022-11-09T02:37:49.914Z,19.13
2022-11-09T02:38:13.176Z,19.33
2022-11-09T02:38:35.903Z,19.30
2022-11-09T02:38:58.711Z,19.30
2022-11-09T02:39:23.370Z,18.35
2022-11-09T02:39:46.072Z,17.10
2022-11-09T02:40:12.657Z,18.08
2022-11-09T02:40:37.915Z,19.38
2022-11-09T02:41:00.637Z,18.65
2022-11-09T02:41:23.359Z,16.98
2022-11-09T02:41:50.559Z,15.60
2022-11-09T02:42:18.333Z,16.15
2022-11-09T02:42:44.020Z,15.55
2022-11-09T02:43:06.753Z,16.13
2022-11-09T02:43:29.619Z,15.57
2022-11-09T02:43:53.749Z,15.27
2022-11-09T02:44:19.362Z,14.85
2022-11-09T02:44:46.411Z,14.85
2022-11-09T02:45:10.729Z,14.32
2022-11-09T02:45:33.553Z,14.73
2022-11-09T02:45:56.349Z,14.25
2022-11-09T02:46:24.131Z,14.57
2022-11-09T02:46:46.904Z,14.48
2022-11-09T02:47:09.630Z,14.88
2022-11-09T02:47:32.272Z,13.55
2022-11-09T02:47:55.039Z,14.02
2022-11-09T02:48:17.795Z,14.32
2022-11-09T02:48:40.463Z,15.32
2022-11-09T02:49:05.939Z,15.07
2022-11-09T02:49:28.619Z,15.07
2022-11-09T02:49:51.540Z,14.70
2022-11-09T02:50:14.269Z,14.40
2022-11-09T02:50:38.444Z,15.40
2022-11-09T02:51:01.202Z,14.18
2022-11-09T02:51:23.889Z,15.57
2022-11-09T02:51:46.669Z,14.27
2022-11-09T02:52:09.430Z,13.85
2022-11-09T02:52:32.155Z,14.50
2022-11-09T02:52:54.910Z,14.98
2022-11-09T02:53:18.263Z,13.90
2022-11-09T02:53:43.859Z,14.65
2022-11-09T02:54:06.785Z,15.25
2022-11-09T02:54:29.578Z,14.20
2022-11-09T02:54:52.304Z,14.18
2022-11-09T02:55:15.208Z,14.15
2022-11-09T02:55:37.893Z,14.73
2022-11-09T02:56:00.668Z,14.57
2022-11-09T02:56:23.546Z,13.77
2022-11-09T02:56:46.258Z,14.10
2022-11-09T02:57:08.994Z,13.88
2022-11-09T02:57:31.676Z,14.45
2022-11-09T02:57:54.403Z,13.77
2022-11-09T02:58:17.189Z,13.93
2022-11-09T02:58:39.973Z,13.55
2022-11-09T02:59:03.525Z,13.88
2022-11-09T02:59:27.379Z,13.15
2022-11-09T02:59:50.078Z,13.13
2022-11-09T03:00:13.378Z,13.68
2022-11-09T03:00:36.004Z,13.50
2022-11-09T03:00:58.806Z,13.10
2022-11-09T03:01:21.628Z,12.73
2022-11-09T03:01:44.411Z,13.32
2022-11-09T03:02:07.243Z,13.35
2022-11-09T03:02:29.943Z,13.15
2022-11-09T03:02:52.743Z,12.70
2022-11-09T03:03:15.519Z,13.35
2022-11-09T03:03:38.260Z,13.48
2022-11-09T03:04:00.926Z,13.80
2022-11-09T03:04:23.785Z,14.32
2022-11-09T03:04:46.545Z,14.20
2022-11-09T03:05:09.662Z,13.30
2022-11-09T03:05:32.483Z,13.32
2022-11-09T03:05:56.643Z,13.13
2022-11-09T03:06:19.533Z,13.30
2022-11-09T03:06:42.398Z,13.00
2022-11-09T03:07:05.277Z,12.70
2022-11-09T03:07:28.164Z,13.68
2022-11-09T03:07:50.878Z,13.38
2022-11-09T03:08:16.123Z,12.68
2022-11-09T03:08:38.895Z,12.63
2022-11-09T03:09:01.884Z,13.07
2022-11-09T03:09:24.634Z,13.25
2022-11-09T03:09:50.238Z,14.90
2022-11-09T03:10:12.986Z,14.68
2022-11-09T03:10:35.778Z,14.55
2022-11-09T03:10:59.843Z,15.38
2022-11-09T03:11:22.658Z,15.10
2022-11-09T03:11:45.437Z,14.35
2022-11-09T03:12:29.270Z,14.18
2022-11-09T03:12:51.984Z,13.27
2022-11-09T03:13:14.704Z,13.20
2022-11-09T03:13:37.469Z,13.95
2022-11-09T03:14:00.169Z,14.15
2022-11-09T03:14:23.889Z,14.48
2022-11-09T03:14:47.223Z,13.77
2022-11-09T03:15:10.616Z,13.52
2022-11-09T03:15:33.344Z,14.00
2022-11-09T03:15:56.043Z,13.43
2022-11-09T03:16:18.729Z,13.50
2022-11-09T03:16:44.209Z,14.48
2022-11-09T03:17:09.280Z,14.15
2022-11-09T03:17:32.233Z,13.70
2022-11-09T03:17:55.029Z,14.43
2022-11-09T03:18:17.743Z,14.10
2022-11-09T03:18:40.476Z,15.13
2022-11-09T03:19:03.238Z,14.63
2022-11-09T03:19:26.119Z,14.73
2022-11-09T03:19:52.149Z,13.95
2022-11-09T03:20:15.114Z,14.68
2022-11-09T03:20:37.829Z,14.80
2022-11-09T03:21:05.133Z,14.02
2022-11-09T03:21:28.463Z,14.13
2022-11-09T03:21:51.229Z,14.68
2022-11-09T03:22:13.908Z,14.57
2022-11-09T03:22:36.695Z,14.93
2022-11-09T03:23:01.759Z,13.95
2022-11-09T03:23:24.558Z,14.20
2022-11-09T03:23:47.344Z,13.45
2022-11-09T03:24:10.183Z,13.13
2022-11-09T03:24:32.994Z,13.23
2022-11-09T03:24:55.854Z,13.40
2022-11-09T03:25:18.635Z,13.15
2022-11-09T03:25:41.369Z,13.77
2022-11-09T03:26:04.043Z,13.95
2022-11-09T03:26:26.814Z,13.32
2022-11-09T03:26:49.488Z,13.05
2022-11-09T03:27:12.256Z,13.38
2022-11-09T03:27:34.943Z,13.48
2022-11-09T03:27:58.589Z,12.73
2022-11-09T03:28:22.374Z,12.85
2022-11-09T03:28:45.138Z,12.70
2022-11-09T03:29:07.999Z,12.55
2022-11-09T03:29:31.014Z,12.32
2022-11-09T03:29:55.685Z,13.00
2022-11-09T03:30:19.429Z,12.77
2022-11-09T03:30:42.071Z,13.85
2022-11-09T03:31:05.014Z,14.05
2022-11-09T03:31:27.723Z,13.75
2022-11-09T03:31:50.518Z,13.00
2022-11-09T03:32:13.252Z,14.10
2022-11-09T03:32:35.931Z,14.02
2022-11-09T03:32:59.394Z,13.73
2022-11-09T03:33:22.419Z,13.25
2022-11-09T03:33:45.513Z,13.73
2022-11-09T03:34:08.278Z,14.18
2022-11-09T03:34:30.955Z,14.00
2022-11-09T03:34:53.666Z,14.55
2022-11-09T03:35:16.635Z,13.57
2022-11-09T03:35:39.435Z,13.85
2022-11-09T03:36:02.098Z,15.05
2022-11-09T03:36:26.318Z,13.90
2022-11-09T03:36:49.181Z,13.70
2022-11-09T03:37:11.976Z,14.00
2022-11-09T03:37:34.784Z,14.43
2022-11-09T03:38:00.854Z,14.77
2022-11-09T03:38:26.429Z,14.00
2022-11-09T03:38:49.109Z,14.85
2022-11-09T03:39:11.843Z,15.40
2022-11-09T03:39:34.618Z,15.70
2022-11-09T03:39:57.325Z,15.63
2022-11-09T03:40:20.000Z,16.35
2022-11-09T03:40:42.837Z,15.68
2022-11-09T03:41:05.858Z,15.43
2022-11-09T03:41:28.546Z,16.65
2022-11-09T03:41:51.292Z,15.90
2022-11-09T03:42:14.062Z,15.68
2022-11-09T03:42:39.999Z,15.50
2022-11-09T03:43:02.833Z,14.43
2022-11-09T03:43:25.588Z,14.77
2022-11-09T03:43:48.335Z,16.50
2022-11-09T03:44:11.029Z,16.52
2022-11-09T03:44:33.761Z,17.63
2022-11-09T03:44:59.117Z,17.58
2022-11-09T03:45:21.864Z,17.52
2022-11-09T03:45:44.507Z,16.48
2022-11-09T03:46:07.164Z,16.02
2022-11-09T03:46:29.918Z,14.45
2022-11-09T03:46:52.668Z,13.25
2022-11-09T03:47:15.391Z,13.75
2022-11-09T03:47:40.811Z,14.68
2022-11-09T03:48:03.842Z,15.20
2022-11-09T03:48:26.589Z,13.63
2022-11-09T03:48:49.264Z,12.77
2022-11-09T03:49:11.979Z,12.98
2022-11-09T03:49:37.209Z,13.30
2022-11-09T03:49:59.880Z,13.52
2022-11-09T03:50:22.784Z,14.77
2022-11-09T03:50:45.492Z,14.23
2022-11-09T03:51:08.239Z,13.38
2022-11-09T03:51:32.364Z,13.00
2022-11-09T03:51:54.996Z,13.30
2022-11-09T03:52:17.699Z,13.23
2022-11-09T03:52:40.486Z,13.48
2022-11-09T03:53:03.276Z,14.95
2022-11-09T03:53:25.969Z,15.38
2022-11-09T03:53:48.722Z,15.25
2022-11-09T03:54:11.410Z,16.27
2022-11-09T03:54:36.265Z,15.30
2022-11-09T03:54:59.069Z,14.32
2022-11-09T03:55:21.760Z,14.57
2022-11-09T03:55:44.558Z,14.63
2022-11-09T03:56:10.489Z,14.38
2022-11-09T03:56:33.177Z,15.48
2022-11-09T03:56:55.969Z,15.23
2022-11-09T03:57:18.677Z,14.48
2022-11-09T03:57:41.328Z,14.88
2022-11-09T03:58:04.173Z,14.75
2022-11-09T03:58:26.875Z,14.55
2022-11-09T03:58:49.575Z,14.48
2022-11-09T03:59:13.265Z,15.25
2022-11-09T03:59:36.479Z,15.43
2022-11-09T03:59:59.225Z,16.23
2022-11-09T04:00:22.816Z,15.40
2022-11-09T04:00:45.555Z,14.80
2022-11-09T04:01:08.469Z,14.88
2022-11-09T04:01:31.439Z,15.32
2022-11-09T04:01:54.207Z,15.52
2022-11-09T04:02:16.899Z,15.70
2022-11-09T04:02:39.639Z,15.52
2022-11-09T04:03:02.353Z,15.10
2022-11-09T04:03:27.859Z,14.65
2022-11-09T04:03:50.641Z,15.48
2022-11-09T04:04:13.397Z,15.57
2022-11-09T04:04:36.048Z,14.23
2022-11-09T04:04:58.944Z,14.50
2022-11-09T04:05:21.831Z,15.48
2022-11-09T04:05:44.482Z,15.48
2022-11-09T04:06:07.316Z,14.23
2022-11-09T04:06:31.745Z,14.70
2022-11-09T04:06:54.668Z,14.13
2022-11-09T04:07:17.682Z,13.77
2022-11-09T04:07:40.679Z,13.88
2022-11-09T04:08:03.453Z,13.60
2022-11-09T04:08:26.134Z,12.90
2022-11-09T04:08:51.495Z,13.45
2022-11-09T04:09:14.964Z,13.88
2022-11-09T04:09:37.669Z,13.73
2022-11-09T04:10:00.436Z,13.40
2022-11-09T04:10:23.477Z,13.57
2022-11-09T04:10:46.170Z,13.20
2022-11-09T04:11:08.944Z,13.20
2022-11-09T04:11:32.826Z,13.02
2022-11-09T04:11:55.519Z,13.00
2022-11-09T04:12:18.214Z,12.88
2022-11-09T04:12:41.005Z,12.80
2022-11-09T04:13:03.770Z,12.63
2022-11-09T04:13:26.509Z,12.27
2022-11-09T04:13:49.319Z,11.82
2022-11-09T04:14:12.396Z,11.65
2022-11-09T04:14:35.068Z,11.95
2022-11-09T04:15:00.544Z,12.82
2022-11-09T04:15:23.359Z,13.25
2022-11-09T04:15:46.050Z,12.43
2022-11-09T04:16:08.888Z,12.32
2022-11-09T04:16:31.652Z,12.80
2022-11-09T04:16:56.598Z,12.27
2022-11-09T04:17:19.394Z,12.18
2022-11-09T04:17:42.240Z,11.98
2022-11-09T04:18:05.001Z,11.60
2022-11-09T04:18:27.737Z,11.65
2022-11-09T04:18:50.391Z,11.82
2022-11-09T04:19:13.510Z,11.85
2022-11-09T04:19:36.421Z,11.95
2022-11-09T04:20:02.205Z,11.68
2022-11-09T04:20:25.207Z,12.02
2022-11-09T04:20:50.087Z,12.30
2022-11-09T04:21:12.894Z,12.00
2022-11-09T04:21:38.074Z,12.30
2022-11-09T04:22:01.189Z,11.98
2022-11-09T04:22:23.909Z,12.15
2022-11-09T04:22:46.617Z,11.82
2022-11-09T04:23:11.916Z,11.98
2022-11-09T04:23:34.644Z,11.85
2022-11-09T04:23:57.318Z,11.88
2022-11-09T04:24:20.014Z,12.30
2022-11-09T04:24:43.676Z,12.52
2022-11-09T04:25:09.165Z,12.18
2022-11-09T04:25:32.959Z,11.73
2022-11-09T04:25:57.829Z,12.10
2022-11-09T04:26:20.589Z,11.95
2022-11-09T04:26:43.259Z,12.10
2022-11-09T04:27:06.585Z,12.65
2022-11-09T04:27:30.114Z,12.60
2022-11-09T04:27:56.339Z,12.90
2022-11-09T04:28:19.027Z,13.57
2022-11-09T04:28:41.730Z,13.93
2022-11-09T04:29:04.431Z,13.02
2022-11-09T04:29:27.169Z,12.80
2022-11-09T04:29:49.755Z,12.15
2022-11-09T04:30:12.976Z,12.43
2022-11-09T04:30:36.041Z,13.07
2022-11-09T04:31:01.286Z,12.60
2022-11-09T04:31:27.898Z,13.05
2022-11-09T04:31:51.282Z,13.18
2022-11-09T04:32:13.943Z,12.05
2022-11-09T04:32:36.762Z,12.00
2022-11-09T04:33:00.178Z,12.10
2022-11-09T04:33:23.127Z,12.10
2022-11-09T04:33:49.888Z,12.32
2022-11-09T04:34:12.637Z,12.80
2022-11-09T04:34:35.347Z,12.80
2022-11-09T04:34:58.208Z,12.63
2022-11-09T04:35:20.838Z,12.57
2022-11-09T04:35:43.527Z,12.10
2022-11-09T04:36:06.566Z,12.23
2022-11-09T04:36:29.227Z,12.27
2022-11-09T04:36:53.382Z,11.82
2022-11-09T04:37:16.046Z,12.43
2022-11-09T04:37:38.793Z,11.88
2022-11-09T04:38:02.548Z,11.57
2022-11-09T04:38:25.255Z,11.13
2022-11-09T04:38:48.076Z,11.70
2022-11-09T04:39:10.913Z,11.15
2022-11-09T04:39:33.847Z,11.05
2022-11-09T04:39:56.570Z,11.48
2022-11-09T04:40:22.262Z,11.57
2022-11-09T04:40:44.949Z,11.68
2022-11-09T04:41:08.642Z,12.00
2022-11-09T04:41:31.366Z,11.57
2022-11-09T04:41:54.047Z,11.65
2022-11-09T04:42:16.848Z,11.38
2022-11-09T04:42:39.528Z,11.27
2022-11-09T04:43:02.292Z,11.07
2022-11-09T04:43:24.977Z,11.60
2022-11-09T04:43:47.918Z,10.77
2022-11-09T04:44:10.682Z,11.18
2022-11-09T04:44:33.442Z,10.65
2022-11-09T04:44:57.143Z,10.98
2022-11-09T04:45:19.842Z,11.05
2022-11-09T04:45:42.543Z,11.45
2022-11-09T04:46:05.588Z,11.15
2022-11-09T04:46:28.326Z,10.80
2022-11-09T04:46:50.993Z,10.85
2022-11-09T04:47:13.752Z,11.95
2022-11-09T04:47:36.522Z,11.95
2022-11-09T04:47:59.193Z,12.77
2022-11-09T04:48:21.922Z,12.02
2022-11-09T04:48:44.662Z,12.27
2022-11-09T04:49:07.627Z,12.45
2022-11-09T04:49:30.389Z,12.73
2022-11-09T04:49:54.126Z,12.40
2022-11-09T04:50:17.090Z,12.60
2022-11-09T04:50:39.826Z,12.30
2022-11-09T04:51:02.854Z,12.13
2022-11-09T04:51:25.923Z,11.27
2022-11-09T04:51:48.667Z,10.93
2022-11-09T04:52:15.307Z,11.60
2022-11-09T04:52:38.188Z,11.80
2022-11-09T04:53:07.903Z,11.25
2022-11-09T04:53:30.984Z,11.23
2022-11-09T04:53:53.713Z,11.48
2022-11-09T04:54:16.445Z,11.90
2022-11-09T04:54:39.192Z,11.73
2022-11-09T04:55:02.045Z,11.05
2022-11-09T04:55:24.688Z,10.63
2022-11-09T04:55:47.386Z,11.52
2022-11-09T04:56:10.153Z,11.25
2022-11-09T04:56:35.329Z,11.18
2022-11-09T04:56:58.069Z,11.20
2022-11-09T04:57:20.758Z,11.00
2022-11-09T04:57:43.514Z,10.93
2022-11-09T04:58:07.272Z,11.32
2022-11-09T04:58:30.053Z,11.48
2022-11-09T04:58:52.768Z,11.07
2022-11-09T04:59:15.479Z,12.05
2022-11-09T04:59:38.164Z,12.32
2022-11-09T05:00:00.818Z,11.85
2022-11-09T05:00:23.672Z,12.13
2022-11-09T05:00:46.378Z,11.52
2022-11-09T05:01:11.241Z,11.90
2022-11-09T05:01:34.008Z,12.30
2022-11-09T05:01:56.723Z,12.20
2022-11-09T05:02:22.667Z,12.40
2022-11-09T05:02:46.422Z,11.73